createdAt,value
2022-08-16T00:02:33.251Z,94.13
2022-08-16T00:05:01.171Z,94.58
2022-08-16T00:07:29.629Z,94.77
2022-08-16T00:09:58.062Z,94.78
2022-08-16T00:12:29.807Z,95.25
2022-08-16T00:14:59.324Z,95.02
2022-08-16T00:17:26.783Z,95.45
2022-08-16T00:19:55.456Z,96.44
2022-08-16T00:22:25.546Z,95.60
2022-08-16T00:24:54.861Z,96.97
2022-08-16T00:27:22.540Z,97.56
2022-08-16T00:30:00.566Z,97.05
2022-08-16T00:32:28.132Z,98.38
2022-08-16T00:35:00.618Z,99.39
2022-08-16T00:37:57.586Z,100.00
2022-08-16T00:40:34.075Z,100.00
2022-08-16T00:43:04.539Z,100.00
2022-08-16T00:45:57.756Z,100.00
2022-08-16T00:48:46.505Z,100.00
2022-08-16T00:51:33.226Z,100.00
2022-08-16T00:54:24.446Z,100.00
2022-08-16T00:57:11.640Z,100.00
2022-08-16T00:59:59.604Z,100.00
2022-08-16T01:02:31.246Z,100.00
2022-08-16T01:05:10.302Z,100.00
2022-08-16T01:07:50.760Z,100.00
2022-08-16T01:10:31.578Z,100.00
2022-08-16T01:13:05.292Z,100.00
2022-08-16T01:15:37.672Z,100.00
2022-08-16T01:18:39.315Z,100.00
2022-08-16T01:21:16.336Z,100.00
2022-08-16T01:24:05.571Z,100.00
2022-08-16T01:26:56.293Z,100.00
2022-08-16T01:29:58.163Z,100.00
2022-08-16T01:32:34.284Z,100.00
2022-08-16T01:35:07.259Z,100.00
2022-08-16T01:37:44.918Z,100.00
2022-08-16T01:40:25.221Z,100.00
2022-08-16T01:42:55.346Z,100.00
2022-08-16T01:45:23.173Z,100.00
2022-08-16T01:47:52.190Z,100.00
2022-08-16T01:50:41.799Z,100.00
2022-08-16T01:53:10.154Z,100.00
2022-08-16T01:55:56.689Z,100.00
2022-08-16T01:58:24.015Z,100.00
2022-08-16T02:00:50.817Z,100.00
2022-08-16T02:03:18.046Z,100.00
2022-08-16T02:05:52.230Z,100.00
2022-08-16T02:08:33.835Z,100.00
2022-08-16T02:11:05.624Z,100.00
2022-08-16T02:13:32.867Z,100.00
2022-08-16T02:16:00.137Z,100.00
2022-08-16T02:18:28.205Z,100.00
2022-08-16T02:20:55.187Z,100.00
2022-08-16T02:23:22.678Z,100.00
2022-08-16T02:25:52.136Z,100.00
2022-08-16T02:28:20.948Z,100.00
2022-08-16T02:30:51.698Z,100.00
2022-08-16T02:33:24.538Z,100.00
2022-08-16T02:36:47.873Z,100.00
2022-08-16T02:39:03.647Z,100.00
2022-08-16T02:41:30.958Z,100.00
2022-08-16T02:43:58.378Z,100.00
2022-08-16T02:46:33.486Z,100.00
2022-08-16T02:49:01.806Z,100.00
2022-08-16T02:51:29.420Z,100.00
2022-08-16T02:53:59.455Z,100.00
2022-08-16T02:56:32.219Z,100.00
2022-08-16T02:58:59.772Z,100.00
2022-08-16T03:01:36.705Z,100.00
2022-08-16T03:04:30.199Z,100.00
2022-08-16T03:06:59.235Z,100.00
2022-08-16T03:09:36.553Z,100.00
2022-08-16T03:12:04.804Z,100.00
2022-08-16T03:14:34.784Z,100.00
2022-08-16T03:17:04.116Z,100.00
2022-08-16T03:19:47.322Z,100.00
2022-08-16T03:22:27.764Z,100.00
2022-08-16T03:25:02.494Z,100.00
2022-08-16T03:27:33.061Z,100.00
2022-08-16T03:30:19.928Z,100.00
2022-08-16T03:32:51.386Z,100.00
2022-08-16T03:35:23.399Z,100.00
2022-08-16T03:38:02.600Z,100.00
2022-08-16T03:40:35.254Z,100.00
2022-08-16T03:43:20.281Z,100.00
2022-08-16T03:45:48.209Z,100.00
2022-08-16T03:48:15.109Z,100.00
2022-08-16T03:50:59.743Z,100.00
2022-08-16T03:53:37.646Z,100.00
2022-08-16T03:56:08.023Z,100.00
2022-08-16T03:58:48.422Z,100.00
2022-08-16T04:01:18.549Z,100.00
2022-08-16T04:03:45.849Z,100.00
2022-08-16T04:06:12.720Z,100.00
2022-08-16T04:08:39.539Z,100.00
2022-08-16T04:11:06.765Z,100.00
2022-08-16T04:14:00.533Z,100.00
2022-08-16T04:16:27.283Z,100.00
2022-08-16T04:19:02.511Z,100.00
2022-08-16T04:21:36.049Z,100.00
2022-08-16T04:24:12.367Z,100.00
2022-08-16T04:26:46.069Z,100.00
2022-08-16T04:29:21.763Z,100.00
2022-08-16T04:31:56.146Z,100.00
2022-08-16T04:34:29.994Z,100.00
2022-08-16T04:37:01.047Z,100.00
2022-08-16T04:39:36.768Z,100.00
2022-08-16T04:42:25.831Z,100.00
2022-08-16T04:44:56.216Z,100.00
2022-08-16T04:47:31.399Z,100.00
2022-08-16T04:49:58.910Z,100.00
2022-08-16T04:52:33.496Z,100.00
2022-08-16T04:55:07.982Z,100.00
2022-08-16T04:57:35.940Z,100.00
2022-08-16T05:00:32.628Z,100.00
2022-08-16T05:02:58.686Z,100.00
2022-08-16T05:05:32.693Z,100.00
2022-08-16T05:08:29.163Z,100.00
2022-08-16T05:10:59.868Z,100.00
2022-08-16T05:13:39.800Z,100.00
2022-08-16T05:16:11.848Z,100.00
2022-08-16T05:18:43.201Z,100.00
2022-08-16T05:21:11.294Z,100.00
2022-08-16T05:23:44.340Z,100.00
2022-08-16T05:26:19.890Z,100.00
2022-08-16T05:28:55.513Z,100.00
2022-08-16T05:31:30.358Z,100.00
2022-08-16T05:34:00.632Z,100.00
2022-08-16T05:36:34.402Z,100.00
2022-08-16T05:39:07.777Z,100.00
2022-08-16T05:41:45.130Z,100.00
2022-08-16T05:44:22.904Z,100.00
2022-08-16T05:46:56.178Z,100.00
2022-08-16T05:49:26.147Z,100.00
2022-08-16T05:52:11.267Z,100.00
2022-08-16T05:54:46.794Z,100.00
2022-08-16T05:57:18.365Z,100.00
2022-08-16T05:59:50.357Z,100.00
2022-08-16T06:02:30.519Z,100.00
2022-08-16T06:05:00.235Z,100.00
2022-08-16T06:07:28.712Z,100.00
2022-08-16T06:10:06.676Z,100.00
2022-08-16T06:12:37.936Z,100.00
2022-08-16T06:15:16.570Z,100.00
2022-08-16T06:17:44.754Z,100.00
2022-08-16T06:20:34.680Z,100.00
2022-08-16T06:23:17.261Z,100.00
2022-08-16T06:25:54.825Z,100.00
2022-08-16T06:28:34.825Z,100.00
2022-08-16T06:31:04.639Z,100.00
2022-08-16T06:33:41.277Z,100.00
2022-08-16T06:36:11.597Z,100.00
2022-08-16T06:38:52.254Z,100.00
2022-08-16T06:41:39.828Z,100.00
2022-08-16T06:44:20.683Z,100.00
2022-08-16T06:46:50.628Z,100.00
2022-08-16T06:49:18.120Z,100.00
2022-08-16T06:51:46.672Z,100.00
2022-08-16T06:54:20.000Z,100.00
2022-08-16T06:56:46.541Z,100.00
2022-08-16T06:59:14.719Z,100.00
2022-08-16T07:01:52.084Z,100.00
2022-08-16T07:04:31.569Z,100.00
2022-08-16T07:07:01.762Z,100.00
2022-08-16T07:09:30.618Z,100.00
2022-08-16T07:12:03.576Z,100.00
2022-08-16T07:14:33.338Z,100.00
2022-08-16T07:17:01.144Z,100.00
2022-08-16T07:20:03.906Z,100.00
2022-08-16T07:22:38.177Z,100.00
2022-08-16T07:25:14.724Z,100.00
2022-08-16T07:27:43.344Z,100.00
2022-08-16T07:30:39.450Z,100.00
2022-08-16T07:33:05.295Z,100.00
2022-08-16T07:35:34.723Z,100.00
2022-08-16T07:38:03.469Z,99.78
2022-08-16T07:40:59.600Z,98.55
2022-08-16T07:43:25.506Z,98.72
2022-08-16T07:45:59.383Z,97.87
2022-08-16T07:48:28.692Z,97.15
2022-08-16T07:50:59.136Z,96.73
2022-08-16T07:53:28.908Z,95.83
2022-08-16T07:55:56.903Z,95.83
2022-08-16T07:58:34.525Z,96.04
2022-08-16T08:01:10.330Z,93.44
2022-08-16T08:03:48.939Z,91.50
2022-08-16T08:06:19.198Z,90.09
2022-08-16T08:08:51.104Z,88.46
2022-08-16T08:11:23.499Z,86.17
2022-08-16T08:13:54.359Z,85.31
2022-08-16T08:16:22.199Z,85.50
2022-08-16T08:19:01.010Z,84.83
2022-08-16T08:21:59.837Z,83.44
2022-08-16T08:24:18.295Z,83.11
2022-08-16T08:26:50.152Z,80.86
2022-08-16T08:29:22.996Z,80.97
2022-08-16T08:31:53.175Z,80.24
2022-08-16T08:34:22.201Z,79.13
2022-08-16T08:36:54.078Z,79.13
2022-08-16T08:39:38.348Z,77.24
2022-08-16T08:42:26.599Z,74.96
2022-08-16T08:44:54.096Z,74.46
2022-08-16T08:47:21.631Z,74.07
2022-08-16T08:49:55.653Z,74.59
2022-08-16T08:52:33.647Z,75.06
2022-08-16T08:55:09.046Z,72.89
2022-08-16T08:57:40.602Z,74.03
2022-08-16T09:00:27.052Z,71.48
2022-08-16T09:02:58.824Z,69.80
2022-08-16T09:05:35.531Z,71.60
2022-08-16T09:08:06.002Z,68.90
2022-08-16T09:11:02.127Z,67.30
2022-08-16T09:13:33.244Z,65.63
2022-08-16T09:16:00.294Z,64.75
2022-08-16T09:18:35.835Z,64.27
2022-08-16T09:21:07.021Z,64.69
2022-08-16T09:23:37.581Z,63.02
2022-08-16T09:26:45.728Z,62.32
2022-08-16T09:29:15.697Z,60.35
2022-08-16T09:31:42.060Z,58.21
2022-08-16T09:34:10.401Z,56.63
2022-08-16T09:36:37.644Z,56.00
2022-08-16T09:39:16.354Z,57.82
2022-08-16T09:41:53.191Z,56.71
2022-08-16T09:45:11.180Z,55.79
2022-08-16T09:47:10.311Z,56.36
2022-08-16T09:49:37.536Z,57.68
2022-08-16T09:52:09.582Z,57.52
2022-08-16T09:54:37.108Z,58.80
2022-08-16T09:57:04.230Z,57.10
2022-08-16T09:59:31.456Z,55.12
2022-08-16T10:02:26.396Z,54.66
2022-08-16T10:04:54.949Z,56.80
2022-08-16T10:07:22.295Z,57.29
2022-08-16T10:09:55.114Z,56.79
2022-08-16T10:12:45.304Z,54.79
2022-08-16T10:15:17.723Z,54.33
2022-08-16T10:17:59.967Z,56.27
2022-08-16T10:20:34.614Z,53.26
2022-08-16T10:23:07.240Z,49.83
2022-08-16T10:27:03.785Z,51.16
2022-08-16T10:28:29.721Z,51.49
2022-08-16T10:30:59.745Z,54.07
2022-08-16T10:33:29.656Z,53.55
2022-08-16T10:36:03.676Z,53.52
2022-08-16T10:38:33.142Z,52.20
2022-08-16T10:41:04.106Z,52.05
2022-08-16T10:43:31.106Z,53.02
2022-08-16T10:46:00.793Z,52.39
2022-08-16T10:48:29.372Z,50.21
2022-08-16T10:50:58.454Z,48.49
2022-08-16T10:53:32.476Z,48.82
2022-08-16T10:56:50.693Z,48.82
2022-08-16T10:58:52.815Z,47.17
2022-08-16T11:01:39.906Z,45.98
2022-08-16T11:05:04.621Z,43.53
2022-08-16T11:07:43.552Z,44.18
2022-08-16T11:09:42.948Z,45.03
2022-08-16T11:12:14.439Z,44.20
2022-08-16T11:15:11.235Z,42.82
2022-08-16T11:17:28.503Z,41.67
2022-08-16T11:20:01.588Z,41.95
2022-08-16T11:22:48.891Z,42.15
2022-08-16T11:28:07.112Z,39.10
2022-08-16T11:30:38.908Z,37.92
2022-08-16T11:33:07.611Z,38.45
2022-08-16T11:38:51.761Z,41.06
2022-08-16T11:41:10.659Z,38.67
2022-08-16T11:43:40.344Z,38.86
2022-08-16T11:46:43.627Z,37.65
2022-08-16T11:48:58.094Z,36.30
2022-08-16T11:51:24.623Z,37.87
2022-08-16T11:53:51.714Z,38.31
2022-08-16T11:56:19.797Z,36.24
2022-08-16T11:59:05.835Z,35.93
2022-08-16T12:01:44.190Z,36.25
2022-08-16T12:04:20.178Z,37.24
2022-08-16T12:06:49.312Z,37.62
2022-08-16T12:09:16.603Z,35.63
2022-08-16T12:11:44.780Z,34.92
2022-08-16T12:14:14.158Z,34.92
2022-08-16T12:16:48.682Z,33.67
2022-08-16T12:19:22.462Z,34.34
2022-08-16T12:22:00.149Z,34.79
2022-08-16T12:24:27.864Z,34.42
2022-08-16T12:26:55.406Z,33.47
2022-08-16T12:29:21.879Z,33.39
2022-08-16T12:32:00.405Z,31.91
2022-08-16T12:34:37.255Z,31.37
2022-08-16T12:37:10.359Z,31.81
2022-08-16T12:39:38.463Z,30.84
2022-08-16T12:42:14.322Z,29.62
2022-08-16T12:44:43.498Z,29.12
2022-08-16T12:47:28.679Z,29.64
2022-08-16T12:49:55.193Z,29.64
2022-08-16T12:52:32.633Z,30.99
2022-08-16T12:55:02.740Z,31.00
2022-08-16T12:57:36.783Z,29.91
2022-08-16T13:00:13.172Z,29.94
2022-08-16T13:02:53.970Z,28.24
2022-08-16T13:05:20.530Z,29.97
2022-08-16T13:07:51.328Z,28.12
2022-08-16T13:10:37.065Z,27.78
2022-08-16T13:13:05.784Z,26.95
2022-08-16T13:15:32.351Z,26.94
2022-08-16T13:18:03.192Z,28.22
2022-08-16T13:20:50.676Z,29.17
2022-08-16T13:23:18.543Z,28.26
2022-08-16T13:25:49.744Z,27.30
2022-08-16T13:28:18.759Z,26.32
2022-08-16T13:30:52.532Z,27.46
2022-08-16T13:33:29.274Z,25.58
2022-08-16T13:36:00.266Z,26.92
2022-08-16T13:38:36.475Z,26.21
2022-08-16T13:41:08.244Z,25.58
2022-08-16T13:43:38.250Z,26.23
2022-08-16T13:46:06.536Z,25.13
2022-08-16T13:48:37.340Z,25.58
2022-08-16T13:51:16.768Z,25.67
2022-08-16T13:53:44.398Z,24.57
2022-08-16T13:56:11.048Z,23.99
2022-08-16T13:58:50.711Z,25.29
2022-08-16T14:01:22.680Z,24.79
2022-08-16T14:03:50.213Z,26.03
2022-08-16T14:06:21.392Z,25.51
2022-08-16T14:08:58.785Z,26.40
2022-08-16T14:11:33.434Z,24.92
2022-08-16T14:14:00.239Z,24.01
2022-08-16T14:16:34.273Z,26.10
2022-08-16T14:19:03.599Z,27.12
2022-08-16T14:21:34.831Z,27.70
2022-08-16T14:24:16.739Z,27.59
2022-08-16T14:26:49.822Z,26.49
2022-08-16T14:31:53.469Z,25.23
2022-08-16T14:34:20.765Z,24.74
2022-08-16T14:36:47.331Z,24.38
2022-08-16T14:39:18.637Z,25.21
2022-08-16T14:41:45.112Z,24.24
2022-08-16T14:44:12.080Z,23.50
2022-08-16T14:46:40.251Z,22.65
2022-08-16T14:49:09.642Z,22.68
2022-08-16T14:51:36.611Z,22.41
2022-08-16T14:54:05.432Z,22.47
2022-08-16T14:56:42.521Z,22.44
2022-08-16T14:59:10.777Z,22.93
2022-08-16T15:01:59.857Z,21.96
2022-08-16T15:04:37.931Z,21.49
2022-08-16T15:07:10.979Z,22.02
2022-08-16T15:09:44.844Z,21.32
2022-08-16T15:12:31.082Z,21.29
2022-08-16T15:15:01.359Z,23.14
2022-08-16T15:17:33.829Z,22.24
2022-08-16T15:20:08.752Z,22.04
2022-08-16T15:22:40.640Z,23.29
2022-08-16T15:25:17.699Z,22.79
2022-08-16T15:27:45.598Z,22.91
2022-08-16T15:30:56.922Z,21.94
2022-08-16T15:33:15.854Z,22.30
2022-08-16T15:35:43.415Z,22.18
2022-08-16T15:38:10.645Z,21.56
2022-08-16T15:40:59.121Z,20.80
2022-08-16T15:43:39.054Z,24.59
2022-08-16T15:46:35.749Z,23.28
2022-08-16T15:49:12.404Z,21.84
2022-08-16T15:51:39.523Z,21.09
2022-08-16T15:54:30.104Z,22.32
2022-08-16T15:56:55.302Z,25.12
2022-08-16T15:59:27.340Z,25.58
2022-08-16T16:01:55.815Z,25.77
2022-08-16T16:04:25.618Z,24.21
2022-08-16T16:06:55.336Z,22.91
2022-08-16T16:09:26.233Z,22.70
2022-08-16T16:12:16.179Z,22.23
2022-08-16T16:14:51.666Z,22.61
2022-08-16T16:17:18.228Z,22.03
2022-08-16T16:19:44.757Z,21.80
2022-08-16T16:22:16.134Z,21.82
2022-08-16T16:24:46.917Z,21.98
2022-08-16T16:27:13.917Z,21.59
2022-08-16T16:29:42.515Z,21.40
2022-08-16T16:32:13.337Z,21.76
2022-08-16T16:34:43.275Z,21.98
2022-08-16T16:37:10.325Z,22.18
2022-08-16T16:39:37.706Z,21.59
2022-08-16T16:42:05.370Z,21.56
2022-08-16T16:44:36.507Z,21.43
2022-08-16T16:47:04.023Z,21.41
2022-08-16T16:49:32.837Z,21.29
2022-08-16T16:52:07.489Z,21.58
2022-08-16T16:54:35.390Z,21.76
2022-08-16T16:57:02.479Z,21.58
2022-08-16T16:59:29.286Z,21.86
2022-08-16T17:02:41.472Z,21.80
2022-08-16T17:04:46.063Z,22.33
2022-08-16T17:07:14.345Z,22.19
2022-08-16T17:09:41.190Z,22.27
2022-08-16T17:12:10.072Z,22.36
2022-08-16T17:14:42.622Z,22.67
2022-08-16T17:17:09.950Z,22.98
2022-08-16T17:19:41.179Z,23.08
2022-08-16T17:22:14.279Z,23.82
2022-08-16T17:24:50.226Z,24.29
2022-08-16T17:27:19.345Z,24.05
2022-08-16T17:30:01.564Z,24.86
2022-08-16T17:32:33.870Z,25.22
2022-08-16T17:35:18.972Z,26.44
2022-08-16T17:37:54.359Z,27.01
2022-08-16T17:40:38.059Z,27.54
2022-08-16T17:43:19.018Z,27.65
2022-08-16T17:45:46.420Z,28.18
2022-08-16T17:48:13.664Z,28.82
2022-08-16T17:50:41.720Z,29.39
2022-08-16T17:53:11.315Z,29.71
2022-08-16T17:55:40.798Z,29.72
2022-08-16T17:58:23.083Z,29.55
2022-08-16T18:00:56.361Z,29.58
2022-08-16T18:04:07.803Z,29.64
2022-08-16T18:06:23.406Z,30.35
2022-08-16T18:08:57.894Z,30.59
2022-08-16T18:11:29.876Z,31.34
2022-08-16T18:13:59.389Z,31.25
2022-08-16T18:16:25.886Z,31.81
2022-08-16T18:18:52.563Z,31.32
2022-08-16T18:21:37.804Z,31.82
2022-08-16T18:24:04.580Z,32.40
2022-08-16T18:26:31.030Z,32.31
2022-08-16T18:28:57.496Z,32.90
2022-08-16T18:31:25.021Z,33.97
2022-08-16T18:33:54.725Z,34.23
2022-08-16T18:36:23.888Z,34.64
2022-08-16T18:38:50.889Z,35.10
2022-08-16T18:41:18.558Z,35.12
2022-08-16T18:44:00.883Z,35.33
2022-08-16T18:46:31.578Z,35.82
2022-08-16T18:48:58.036Z,36.17
2022-08-16T18:51:25.771Z,36.42
2022-08-16T18:53:52.922Z,36.48
2022-08-16T18:56:19.775Z,36.77
2022-08-16T18:58:46.354Z,37.01
2022-08-16T19:01:13.024Z,37.65
2022-08-16T19:03:39.598Z,37.98
2022-08-16T19:06:13.702Z,38.23
2022-08-16T19:08:43.625Z,39.01
2022-08-16T19:11:14.545Z,39.48
2022-08-16T19:13:45.492Z,40.05
2022-08-16T19:16:13.679Z,39.84
2022-08-16T19:18:43.566Z,40.02
2022-08-16T19:21:14.718Z,40.77
2022-08-16T19:23:43.906Z,40.65
2022-08-16T19:26:24.734Z,41.02
2022-08-16T19:28:58.442Z,41.48
2022-08-16T19:31:30.476Z,41.29
2022-08-16T19:33:57.988Z,42.15
2022-08-16T19:36:31.876Z,42.38
2022-08-16T19:39:04.499Z,43.03
2022-08-16T19:41:37.050Z,42.59
2022-08-16T19:44:04.494Z,42.68
2022-08-16T19:46:31.790Z,43.97
2022-08-16T19:48:59.395Z,43.98
2022-08-16T19:51:25.928Z,43.76
2022-08-16T19:53:52.615Z,43.89
2022-08-16T19:56:19.735Z,44.05
2022-08-16T19:59:08.760Z,44.57
2022-08-16T20:01:37.358Z,45.66
2022-08-16T20:04:08.171Z,45.46
2022-08-16T20:06:38.618Z,46.01
2022-08-16T20:09:05.984Z,46.29
2022-08-16T20:11:32.650Z,46.31
2022-08-16T20:13:59.371Z,46.79
2022-08-16T20:16:26.269Z,46.08
2022-08-16T20:18:52.864Z,47.01
2022-08-16T20:21:19.435Z,47.07
2022-08-16T20:23:46.394Z,47.82
2022-08-16T20:26:13.032Z,47.95
2022-08-16T20:28:53.600Z,47.92
2022-08-16T20:31:25.529Z,48.40
2022-08-16T20:33:53.135Z,49.14
2022-08-16T20:36:19.718Z,48.73
2022-08-16T20:38:47.842Z,49.34
2022-08-16T20:41:15.861Z,49.22
2022-08-16T20:43:42.601Z,50.01
2022-08-16T20:46:11.416Z,50.78
2022-08-16T20:48:38.054Z,50.70
2022-08-16T20:51:06.668Z,51.29
2022-08-16T20:53:33.886Z,51.66
2022-08-16T20:56:00.580Z,51.92
2022-08-16T20:58:27.106Z,52.40
2022-08-16T21:00:53.697Z,52.85
2022-08-16T21:03:20.325Z,53.70
2022-08-16T21:05:46.873Z,53.82
2022-08-16T21:08:51.551Z,53.91
2022-08-16T21:11:03.276Z,54.15
2022-08-16T21:13:30.742Z,56.26
2022-08-16T21:15:58.390Z,57.20
2022-08-16T21:18:24.877Z,56.53
2022-08-16T21:20:51.717Z,56.46
2022-08-16T21:23:18.748Z,56.20
2022-08-16T21:25:58.300Z,57.28
2022-08-16T21:28:39.480Z,56.79
2022-08-16T21:31:10.796Z,57.05
2022-08-16T21:33:37.291Z,56.79
2022-08-16T21:36:04.160Z,57.69
2022-08-16T21:38:31.283Z,57.30
2022-08-16T21:41:02.932Z,58.62
2022-08-16T21:43:32.841Z,58.65
2022-08-16T21:46:04.577Z,60.09
2022-08-16T21:48:34.536Z,60.34
2022-08-16T21:51:05.090Z,60.28
2022-08-16T21:53:31.747Z,60.19
2022-08-16T21:55:59.503Z,61.19
2022-08-16T21:58:26.706Z,61.05
2022-08-16T22:00:54.070Z,60.65
2022-08-16T22:03:21.153Z,61.50
2022-08-16T22:06:11.534Z,62.45
2022-08-16T22:08:35.735Z,62.48
2022-08-16T22:11:13.344Z,62.05
2022-08-16T22:13:40.269Z,62.51
2022-08-16T22:16:08.643Z,62.43
2022-08-16T22:18:35.068Z,62.48
2022-08-16T22:21:01.557Z,63.16
2022-08-16T22:23:28.143Z,63.01
2022-08-16T22:25:55.712Z,63.35
2022-08-16T22:28:23.161Z,64.66
2022-08-16T22:30:49.917Z,65.56
2022-08-16T22:33:20.068Z,65.95
2022-08-16T22:35:53.355Z,65.35
2022-08-16T22:38:55.279Z,66.23
2022-08-16T22:41:07.338Z,67.37
2022-08-16T22:43:33.895Z,66.64
2022-08-16T22:46:00.587Z,66.48
2022-08-16T22:48:27.128Z,67.02
2022-08-16T22:50:53.628Z,67.18
2022-08-16T22:53:20.555Z,67.59
2022-08-16T22:55:47.384Z,67.86
2022-08-16T22:58:13.989Z,69.42
2022-08-16T23:00:40.824Z,69.62
2022-08-16T23:03:12.241Z,70.17
2022-08-16T23:05:55.427Z,69.55
2022-08-16T23:08:32.290Z,68.82
2022-08-16T23:11:09.090Z,68.77
2022-08-16T23:13:36.064Z,68.77
2022-08-16T23:16:10.703Z,69.75
2022-08-16T23:18:39.078Z,70.40
2022-08-16T23:21:09.275Z,70.78
2022-08-16T23:23:37.001Z,70.15
2022-08-16T23:26:46.030Z,69.28
2022-08-16T23:28:50.819Z,70.15
2022-08-16T23:31:17.535Z,70.69
2022-08-16T23:33:44.499Z,69.83
2022-08-16T23:36:11.165Z,71.16
2022-08-16T23:38:39.617Z,72.16
2022-08-16T23:41:11.454Z,71.28
2022-08-16T23:43:42.939Z,70.48
2022-08-16T23:46:13.797Z,71.52
2022-08-16T23:49:56.959Z,71.45
2022-08-16T23:51:28.829Z,71.86
2022-08-16T23:53:55.596Z,72.14
2022-08-16T23:56:22.298Z,71.93
2022-08-16T23:58:54.251Z,72.11
